sensor_id;sensor_type;location;lat;lon;timestamp;P1;durP1;ratioP1;P2;durP2;ratioP2
58250;SDS011;51449;51.676;5.812;2023-03-23T00:00:01;5.03;;;3.20;;
58250;SDS011;51449;51.676;5.812;2023-03-23T00:02:31;5.57;;;3.27;;
58250;SDS011;51449;51.676;5.812;2023-03-23T00:04:58;6.87;;;3.40;;
58250;SDS011;51449;51.676;5.812;2023-03-23T00:07:21;5.33;;;3.33;;
58250;SDS011;51449;51.676;5.812;2023-03-23T00:09:48;5.40;;;3.17;;
58250;SDS011;51449;51.676;5.812;2023-03-23T00:12:15;5.77;;;3.40;;
58250;SDS011;51449;51.676;5.812;2023-03-23T00:14:36;5.03;;;3.47;;
58250;SDS011;51449;51.676;5.812;2023-03-23T00:19:22;3.80;;;2.80;;
58250;SDS011;51449;51.676;5.812;2023-03-23T00:21:43;5.77;;;3.33;;
58250;SDS011;51449;51.676;5.812;2023-03-23T00:28:49;5.73;;;3.63;;
58250;SDS011;51449;51.676;5.812;2023-03-23T00:31:11;5.50;;;3.20;;
58250;SDS011;51449;51.676;5.812;2023-03-23T00:33:34;5.63;;;3.00;;
58250;SDS011;51449;51.676;5.812;2023-03-23T00:36:00;5.57;;;3.20;;
58250;SDS011;51449;51.676;5.812;2023-03-23T00:38:22;6.00;;;3.97;;
58250;SDS011;51449;51.676;5.812;2023-03-23T00:40:47;6.07;;;3.37;;
58250;SDS011;51449;51.676;5.812;2023-03-23T00:43:09;4.83;;;3.43;;
58250;SDS011;51449;51.676;5.812;2023-03-23T00:45:34;7.10;;;3.25;;
58250;SDS011;51449;51.676;5.812;2023-03-23T00:47:54;7.13;;;4.47;;
58250;SDS011;51449;51.676;5.812;2023-03-23T00:50:17;4.83;;;3.07;;
58250;SDS011;51449;51.676;5.812;2023-03-23T00:52:39;4.20;;;3.03;;
58250;SDS011;51449;51.676;5.812;2023-03-23T00:55:00;6.40;;;3.67;;
58250;SDS011;51449;51.676;5.812;2023-03-23T00:57:21;4.67;;;3.20;;
58250;SDS011;51449;51.676;5.812;2023-03-23T00:59:44;6.77;;;3.43;;
58250;SDS011;51449;51.676;5.812;2023-03-23T01:02:05;6.67;;;3.53;;
58250;SDS011;51449;51.676;5.812;2023-03-23T01:04:25;5.73;;;3.53;;
58250;SDS011;51449;51.676;5.812;2023-03-23T01:06:49;4.27;;;3.23;;
58250;SDS011;51449;51.676;5.812;2023-03-23T01:09:14;4.90;;;3.53;;
58250;SDS011;51449;51.676;5.812;2023-03-23T01:11:36;5.03;;;3.37;;
58250;SDS011;51449;51.676;5.812;2023-03-23T01:13:59;5.23;;;3.57;;
58250;SDS011;51449;51.676;5.812;2023-03-23T01:16:21;5.87;;;3.50;;
58250;SDS011;51449;51.676;5.812;2023-03-23T01:18:42;4.40;;;3.20;;
58250;SDS011;51449;51.676;5.812;2023-03-23T01:21:04;5.70;;;3.80;;
58250;SDS011;51449;51.676;5.812;2023-03-23T01:23:31;5.23;;;3.73;;
58250;SDS011;51449;51.676;5.812;2023-03-23T01:25:54;4.65;;;3.40;;
58250;SDS011;51449;51.676;5.812;2023-03-23T01:28:18;5.07;;;3.55;;
58250;SDS011;51449;51.676;5.812;2023-03-23T01:30:39;4.33;;;3.07;;
58250;SDS011;51449;51.676;5.812;2023-03-23T01:32:59;6.37;;;3.37;;
58250;SDS011;51449;51.676;5.812;2023-03-23T01:35:20;5.00;;;3.87;;
58250;SDS011;51449;51.676;5.812;2023-03-23T01:37:42;4.70;;;3.67;;
58250;SDS011;51449;51.676;5.812;2023-03-23T01:40:03;5.77;;;4.30;;
58250;SDS011;51449;51.676;5.812;2023-03-23T01:42:25;5.07;;;3.40;;
58250;SDS011;51449;51.676;5.812;2023-03-23T01:47:14;4.17;;;3.60;;
58250;SDS011;51449;51.676;5.812;2023-03-23T01:49:36;4.27;;;3.70;;
58250;SDS011;51449;51.676;5.812;2023-03-23T01:52:04;5.90;;;3.97;;
58250;SDS011;51449;51.676;5.812;2023-03-23T01:54:33;4.90;;;3.87;;
58250;SDS011;51449;51.676;5.812;2023-03-23T01:57:01;7.10;;;4.10;;
58250;SDS011;51449;51.676;5.812;2023-03-23T01:59:26;5.00;;;3.80;;
58250;SDS011;51449;51.676;5.812;2023-03-23T02:02:10;4.83;;;3.53;;
58250;SDS011;51449;51.676;5.812;2023-03-23T02:04:33;5.07;;;3.73;;
58250;SDS011;51449;51.676;5.812;2023-03-23T02:06:54;7.27;;;3.60;;
58250;SDS011;51449;51.676;5.812;2023-03-23T02:09:20;5.80;;;3.63;;
58250;SDS011;51449;51.676;5.812;2023-03-23T02:11:46;4.53;;;3.77;;
58250;SDS011;51449;51.676;5.812;2023-03-23T02:14:10;5.00;;;3.90;;
58250;SDS011;51449;51.676;5.812;2023-03-23T02:22:19;5.47;;;4.17;;
58250;SDS011;51449;51.676;5.812;2023-03-23T02:24:59;5.73;;;3.57;;
58250;SDS011;51449;51.676;5.812;2023-03-23T02:33:55;5.00;;;3.60;;
58250;SDS011;51449;51.676;5.812;2023-03-23T02:36:28;5.57;;;3.77;;
58250;SDS011;51449;51.676;5.812;2023-03-23T02:41:33;4.10;;;3.22;;
58250;SDS011;51449;51.676;5.812;2023-03-23T02:44:04;4.60;;;3.20;;
58250;SDS011;51449;51.676;5.812;2023-03-23T02:46:27;3.77;;;3.40;;
58250;SDS011;51449;51.676;5.812;2023-03-23T02:48:50;3.97;;;3.57;;
58250;SDS011;51449;51.676;5.812;2023-03-23T02:51:18;4.63;;;3.60;;
58250;SDS011;51449;51.676;5.812;2023-03-23T02:53:42;4.40;;;3.47;;
58250;SDS011;51449;51.676;5.812;2023-03-23T02:56:05;5.83;;;3.30;;
58250;SDS011;51449;51.676;5.812;2023-03-23T02:58:29;4.72;;;3.38;;
58250;SDS011;51449;51.676;5.812;2023-03-23T03:00:51;4.70;;;3.30;;
58250;SDS011;51449;51.676;5.812;2023-03-23T03:03:17;5.27;;;3.60;;
58250;SDS011;51449;51.676;5.812;2023-03-23T03:08:10;3.87;;;3.47;;
58250;SDS011;51449;51.676;5.812;2023-03-23T03:11:05;4.90;;;3.27;;
58250;SDS011;51449;51.676;5.812;2023-03-23T03:13:38;5.13;;;3.70;;
58250;SDS011;51449;51.676;5.812;2023-03-23T03:21:36;4.13;;;3.40;;
58250;SDS011;51449;51.676;5.812;2023-03-23T03:24:03;5.47;;;3.90;;
58250;SDS011;51449;51.676;5.812;2023-03-23T03:26:31;4.80;;;3.43;;
58250;SDS011;51449;51.676;5.812;2023-03-23T03:29:21;4.23;;;3.30;;
58250;SDS011;51449;51.676;5.812;2023-03-23T03:31:48;5.83;;;3.70;;
58250;SDS011;51449;51.676;5.812;2023-03-23T03:34:15;3.93;;;3.53;;
58250;SDS011;51449;51.676;5.812;2023-03-23T03:36:40;5.40;;;3.77;;
58250;SDS011;51449;51.676;5.812;2023-03-23T03:39:04;4.97;;;3.60;;
58250;SDS011;51449;51.676;5.812;2023-03-23T03:41:29;6.93;;;3.90;;
58250;SDS011;51449;51.676;5.812;2023-03-23T03:43:50;6.80;;;3.80;;
58250;SDS011;51449;51.676;5.812;2023-03-23T03:46:10;4.63;;;3.43;;
58250;SDS011;51449;51.676;5.812;2023-03-23T03:48:33;3.63;;;3.27;;
58250;SDS011;51449;51.676;5.812;2023-03-23T03:50:54;4.60;;;3.30;;
58250;SDS011;51449;51.676;5.812;2023-03-23T03:53:17;6.73;;;3.77;;
58250;SDS011;51449;51.676;5.812;2023-03-23T03:55:38;7.53;;;3.93;;
58250;SDS011;51449;51.676;5.812;2023-03-23T03:58:04;4.70;;;3.33;;
58250;SDS011;51449;51.676;5.812;2023-03-23T04:00:47;4.00;;;3.60;;
58250;SDS011;51449;51.676;5.812;2023-03-23T04:03:13;5.70;;;3.60;;
58250;SDS011;51449;51.676;5.812;2023-03-23T04:05:49;4.43;;;3.70;;
58250;SDS011;51449;51.676;5.812;2023-03-23T04:08:10;4.40;;;3.23;;
58250;SDS011;51449;51.676;5.812;2023-03-23T04:10:31;6.73;;;3.83;;
58250;SDS011;51449;51.676;5.812;2023-03-23T04:12:54;4.67;;;3.47;;
58250;SDS011;51449;51.676;5.812;2023-03-23T04:15:44;4.80;;;3.13;;
58250;SDS011;51449;51.676;5.812;2023-03-23T04:18:07;4.23;;;3.40;;
58250;SDS011;51449;51.676;5.812;2023-03-23T04:20:29;4.07;;;3.20;;
58250;SDS011;51449;51.676;5.812;2023-03-23T04:22:50;7.27;;;3.10;;
58250;SDS011;51449;51.676;5.812;2023-03-23T04:25:12;3.47;;;3.13;;
58250;SDS011;51449;51.676;5.812;2023-03-23T04:27:35;4.53;;;3.20;;
58250;SDS011;51449;51.676;5.812;2023-03-23T04:29:59;3.90;;;2.77;;
58250;SDS011;51449;51.676;5.812;2023-03-23T04:32:34;5.57;;;3.17;;
58250;SDS011;51449;51.676;5.812;2023-03-23T04:34:57;6.37;;;3.83;;
58250;SDS011;51449;51.676;5.812;2023-03-23T04:37:30;4.50;;;2.87;;
58250;SDS011;51449;51.676;5.812;2023-03-23T04:39:55;5.17;;;2.40;;
58250;SDS011;51449;51.676;5.812;2023-03-23T04:42:29;5.87;;;2.70;;
58250;SDS011;51449;51.676;5.812;2023-03-23T04:45:16;8.73;;;2.60;;
58250;SDS011;51449;51.676;5.812;2023-03-23T04:47:42;7.53;;;2.43;;
58250;SDS011;51449;51.676;5.812;2023-03-23T04:50:16;4.70;;;2.40;;
58250;SDS011;51449;51.676;5.812;2023-03-23T04:52:38;5.30;;;2.13;;
58250;SDS011;51449;51.676;5.812;2023-03-23T04:55:08;4.40;;;1.90;;
58250;SDS011;51449;51.676;5.812;2023-03-23T04:57:31;4.37;;;2.30;;
58250;SDS011;51449;51.676;5.812;2023-03-23T05:00:17;5.13;;;2.37;;
58250;SDS011;51449;51.676;5.812;2023-03-23T05:02:47;5.67;;;1.90;;
58250;SDS011;51449;51.676;5.812;2023-03-23T05:05:15;5.90;;;2.17;;
58250;SDS011;51449;51.676;5.812;2023-03-23T05:07:36;6.40;;;1.90;;
58250;SDS011;51449;51.676;5.812;2023-03-23T05:09:58;5.17;;;1.63;;
58250;SDS011;51449;51.676;5.812;2023-03-23T05:12:23;8.37;;;2.50;;
58250;SDS011;51449;51.676;5.812;2023-03-23T05:14:50;4.80;;;1.90;;
58250;SDS011;51449;51.676;5.812;2023-03-23T05:17:14;7.07;;;2.17;;
58250;SDS011;51449;51.676;5.812;2023-03-23T05:19:37;4.45;;;1.63;;
58250;SDS011;51449;51.676;5.812;2023-03-23T05:22:10;7.40;;;2.27;;
58250;SDS011;51449;51.676;5.812;2023-03-23T05:24:39;8.27;;;1.90;;
58250;SDS011;51449;51.676;5.812;2023-03-23T05:27:03;5.75;;;1.75;;
58250;SDS011;51449;51.676;5.812;2023-03-23T05:29:28;7.37;;;2.00;;
58250;SDS011;51449;51.676;5.812;2023-03-23T05:31:53;2.97;;;1.40;;
58250;SDS011;51449;51.676;5.812;2023-03-23T05:34:16;6.33;;;1.97;;
58250;SDS011;51449;51.676;5.812;2023-03-23T05:36:49;8.10;;;1.93;;
58250;SDS011;51449;51.676;5.812;2023-03-23T05:39:23;7.70;;;1.93;;
58250;SDS011;51449;51.676;5.812;2023-03-23T05:42:16;8.53;;;1.97;;
58250;SDS011;51449;51.676;5.812;2023-03-23T05:45:00;5.93;;;1.90;;
58250;SDS011;51449;51.676;5.812;2023-03-23T05:47:26;3.47;;;1.60;;
58250;SDS011;51449;51.676;5.812;2023-03-23T05:49:51;4.90;;;1.80;;
58250;SDS011;51449;51.676;5.812;2023-03-23T05:52:13;3.67;;;1.30;;
58250;SDS011;51449;51.676;5.812;2023-03-23T05:54:34;5.00;;;1.80;;
58250;SDS011;51449;51.676;5.812;2023-03-23T05:56:55;6.27;;;1.80;;
58250;SDS011;51449;51.676;5.812;2023-03-23T05:59:28;3.53;;;1.57;;
58250;SDS011;51449;51.676;5.812;2023-03-23T06:01:51;8.50;;;1.90;;
58250;SDS011;51449;51.676;5.812;2023-03-23T06:04:15;5.53;;;2.63;;
58250;SDS011;51449;51.676;5.812;2023-03-23T06:06:51;5.77;;;2.07;;
58250;SDS011;51449;51.676;5.812;2023-03-23T06:09:12;4.47;;;2.00;;
58250;SDS011;51449;51.676;5.812;2023-03-23T06:12:10;6.33;;;2.60;;
58250;SDS011;51449;51.676;5.812;2023-03-23T06:14:51;4.80;;;1.90;;
58250;SDS011;51449;51.676;5.812;2023-03-23T06:17:18;5.33;;;2.10;;
58250;SDS011;51449;51.676;5.812;2023-03-23T06:19:41;5.60;;;2.30;;
58250;SDS011;51449;51.676;5.812;2023-03-23T06:22:06;5.20;;;2.53;;
58250;SDS011;51449;51.676;5.812;2023-03-23T06:24:38;6.40;;;3.03;;
58250;SDS011;51449;51.676;5.812;2023-03-23T06:26:59;3.60;;;2.60;;
58250;SDS011;51449;51.676;5.812;2023-03-23T06:29:20;6.23;;;2.40;;
58250;SDS011;51449;51.676;5.812;2023-03-23T06:31:47;5.87;;;2.17;;
58250;SDS011;51449;51.676;5.812;2023-03-23T06:34:14;5.33;;;2.43;;
58250;SDS011;51449;51.676;5.812;2023-03-23T06:36:53;8.40;;;2.50;;
58250;SDS011;51449;51.676;5.812;2023-03-23T06:39:24;6.23;;;2.70;;
58250;SDS011;51449;51.676;5.812;2023-03-23T06:41:56;8.93;;;2.50;;
58250;SDS011;51449;51.676;5.812;2023-03-23T06:44:21;5.70;;;2.47;;
58250;SDS011;51449;51.676;5.812;2023-03-23T06:46:42;8.27;;;2.30;;
58250;SDS011;51449;51.676;5.812;2023-03-23T06:51:44;6.10;;;2.17;;
58250;SDS011;51449;51.676;5.812;2023-03-23T06:54:06;6.20;;;2.50;;
58250;SDS011;51449;51.676;5.812;2023-03-23T06:56:31;6.67;;;2.13;;
58250;SDS011;51449;51.676;5.812;2023-03-23T06:58:52;6.40;;;2.33;;
58250;SDS011;51449;51.676;5.812;2023-03-23T07:01:13;4.67;;;2.10;;
58250;SDS011;51449;51.676;5.812;2023-03-23T07:03:42;6.03;;;2.00;;
58250;SDS011;51449;51.676;5.812;2023-03-23T07:06:06;6.53;;;2.40;;
58250;SDS011;51449;51.676;5.812;2023-03-23T07:08:32;6.47;;;2.27;;
58250;SDS011;51449;51.676;5.812;2023-03-23T07:10:54;6.27;;;1.83;;
58250;SDS011;51449;51.676;5.812;2023-03-23T07:13:20;8.00;;;2.40;;
58250;SDS011;51449;51.676;5.812;2023-03-23T07:15:46;5.77;;;2.40;;
58250;SDS011;51449;51.676;5.812;2023-03-23T07:18:08;6.90;;;2.20;;
58250;SDS011;51449;51.676;5.812;2023-03-23T07:20:34;6.80;;;2.43;;
58250;SDS011;51449;51.676;5.812;2023-03-23T07:22:56;9.33;;;2.23;;
58250;SDS011;51449;51.676;5.812;2023-03-23T07:25:32;8.97;;;2.50;;
58250;SDS011;51449;51.676;5.812;2023-03-23T07:27:54;7.47;;;2.30;;
58250;SDS011;51449;51.676;5.812;2023-03-23T07:30:15;3.83;;;2.20;;
58250;SDS011;51449;51.676;5.812;2023-03-23T07:32:36;6.47;;;2.10;;
58250;SDS011;51449;51.676;5.812;2023-03-23T07:34:57;7.90;;;2.63;;
58250;SDS011;51449;51.676;5.812;2023-03-23T07:37:28;7.00;;;2.20;;
58250;SDS011;51449;51.676;5.812;2023-03-23T07:39:51;6.93;;;2.53;;
58250;SDS011;51449;51.676;5.812;2023-03-23T07:42:12;4.97;;;2.20;;
58250;SDS011;51449;51.676;5.812;2023-03-23T07:44:41;9.30;;;2.80;;
58250;SDS011;51449;51.676;5.812;2023-03-23T07:47:05;5.43;;;2.22;;
58250;SDS011;51449;51.676;5.812;2023-03-23T07:49:27;6.40;;;2.07;;
58250;SDS011;51449;51.676;5.812;2023-03-23T07:51:58;6.70;;;2.13;;
58250;SDS011;51449;51.676;5.812;2023-03-23T07:54:18;6.13;;;2.07;;
58250;SDS011;51449;51.676;5.812;2023-03-23T07:56:42;5.50;;;1.88;;
58250;SDS011;51449;51.676;5.812;2023-03-23T07:59:15;2.87;;;1.50;;
58250;SDS011;51449;51.676;5.812;2023-03-23T08:01:38;2.63;;;1.20;;
58250;SDS011;51449;51.676;5.812;2023-03-23T08:04:24;4.47;;;1.30;;
58250;SDS011;51449;51.676;5.812;2023-03-23T08:07:04;4.83;;;1.63;;
58250;SDS011;51449;51.676;5.812;2023-03-23T08:09:52;2.00;;;0.93;;
58250;SDS011;51449;51.676;5.812;2023-03-23T08:12:27;4.00;;;1.30;;
58250;SDS011;51449;51.676;5.812;2023-03-23T08:15:07;1.63;;;0.70;;
58250;SDS011;51449;51.676;5.812;2023-03-23T08:17:54;0.60;;;0.60;;
58250;SDS011;51449;51.676;5.812;2023-03-23T08:20:33;2.83;;;0.70;;
58250;SDS011;51449;51.676;5.812;2023-03-23T08:23:06;1.83;;;0.60;;
58250;SDS011;51449;51.676;5.812;2023-03-23T08:25:53;1.07;;;0.80;;
58250;SDS011;51449;51.676;5.812;2023-03-23T08:28:26;1.20;;;0.60;;
58250;SDS011;51449;51.676;5.812;2023-03-23T08:31:14;2.03;;;0.60;;
58250;SDS011;51449;51.676;5.812;2023-03-23T08:33:47;1.57;;;0.60;;
58250;SDS011;51449;51.676;5.812;2023-03-23T08:36:28;3.30;;;1.00;;
58250;SDS011;51449;51.676;5.812;2023-03-23T08:38:48;2.83;;;0.80;;
58250;SDS011;51449;51.676;5.812;2023-03-23T08:41:35;1.47;;;0.70;;
58250;SDS011;51449;51.676;5.812;2023-03-23T08:44:07;3.00;;;1.10;;
58250;SDS011;51449;51.676;5.812;2023-03-23T08:46:48;2.93;;;0.90;;
58250;SDS011;51449;51.676;5.812;2023-03-23T08:49:35;2.70;;;0.90;;
58250;SDS011;51449;51.676;5.812;2023-03-23T08:51:59;2.73;;;1.30;;
58250;SDS011;51449;51.676;5.812;2023-03-23T08:54:29;3.20;;;1.70;;
58250;SDS011;51449;51.676;5.812;2023-03-23T08:56:51;3.70;;;1.50;;
58250;SDS011;51449;51.676;5.812;2023-03-23T08:59:51;2.30;;;1.20;;
58250;SDS011;51449;51.676;5.812;2023-03-23T09:02:26;2.43;;;0.97;;
58250;SDS011;51449;51.676;5.812;2023-03-23T09:04:58;3.70;;;1.30;;
58250;SDS011;51449;51.676;5.812;2023-03-23T09:07:33;3.37;;;0.80;;
58250;SDS011;51449;51.676;5.812;2023-03-23T09:09:54;3.90;;;1.07;;
58250;SDS011;51449;51.676;5.812;2023-03-23T09:12:15;4.07;;;1.07;;
58250;SDS011;51449;51.676;5.812;2023-03-23T09:14:36;4.37;;;1.00;;
58250;SDS011;51449;51.676;5.812;2023-03-23T09:16:57;3.00;;;1.20;;
58250;SDS011;51449;51.676;5.812;2023-03-23T09:19:18;5.17;;;1.30;;
58250;SDS011;51449;51.676;5.812;2023-03-23T09:21:39;2.23;;;0.90;;
58250;SDS011;51449;51.676;5.812;2023-03-23T09:23:59;3.73;;;1.20;;
58250;SDS011;51449;51.676;5.812;2023-03-23T09:26:21;3.93;;;0.87;;
58250;SDS011;51449;51.676;5.812;2023-03-23T09:28:42;3.53;;;0.80;;
58250;SDS011;51449;51.676;5.812;2023-03-23T09:31:04;3.47;;;1.10;;
58250;SDS011;51449;51.676;5.812;2023-03-23T09:33:25;4.50;;;1.00;;
58250;SDS011;51449;51.676;5.812;2023-03-23T09:35:47;3.50;;;0.97;;
58250;SDS011;51449;51.676;5.812;2023-03-23T09:38:08;2.83;;;0.80;;
58250;SDS011;51449;51.676;5.812;2023-03-23T09:40:38;6.00;;;1.63;;
58250;SDS011;51449;51.676;5.812;2023-03-23T09:43:29;4.07;;;1.17;;
58250;SDS011;51449;51.676;5.812;2023-03-23T09:48:33;6.20;;;1.10;;
58250;SDS011;51449;51.676;5.812;2023-03-23T09:56:48;2.83;;;1.03;;
58250;SDS011;51449;51.676;5.812;2023-03-23T10:01:49;3.97;;;1.10;;
58250;SDS011;51449;51.676;5.812;2023-03-23T10:04:44;2.53;;;1.20;;
58250;SDS011;51449;51.676;5.812;2023-03-23T10:07:12;3.40;;;0.93;;
58250;SDS011;51449;51.676;5.812;2023-03-23T10:09:37;3.70;;;0.90;;
58250;SDS011;51449;51.676;5.812;2023-03-23T10:12:02;1.77;;;1.00;;
58250;SDS011;51449;51.676;5.812;2023-03-23T10:17:29;1.70;;;0.90;;
58250;SDS011;51449;51.676;5.812;2023-03-23T10:29:08;4.87;;;1.50;;
58250;SDS011;51449;51.676;5.812;2023-03-23T10:31:37;4.73;;;1.37;;
58250;SDS011;51449;51.676;5.812;2023-03-23T10:34:04;3.13;;;1.20;;
58250;SDS011;51449;51.676;5.812;2023-03-23T10:36:37;4.13;;;1.27;;
58250;SDS011;51449;51.676;5.812;2023-03-23T10:41:41;5.27;;;1.40;;
58250;SDS011;51449;51.676;5.812;2023-03-23T10:44:09;3.83;;;1.70;;
58250;SDS011;51449;51.676;5.812;2023-03-23T10:47:16;4.73;;;1.60;;
58250;SDS011;51449;51.676;5.812;2023-03-23T10:49:45;3.23;;;1.40;;
58250;SDS011;51449;51.676;5.812;2023-03-23T10:52:30;4.67;;;1.40;;
58250;SDS011;51449;51.676;5.812;2023-03-23T10:57:39;5.33;;;1.87;;
58250;SDS011;51449;51.676;5.812;2023-03-23T11:02:40;6.93;;;2.10;;
58250;SDS011;51449;51.676;5.812;2023-03-23T11:07:40;4.07;;;1.50;;
58250;SDS011;51449;51.676;5.812;2023-03-23T11:10:06;6.80;;;1.60;;
58250;SDS011;51449;51.676;5.812;2023-03-23T11:12:43;5.27;;;1.50;;
58250;SDS011;51449;51.676;5.812;2023-03-23T11:15:15;3.70;;;1.50;;
58250;SDS011;51449;51.676;5.812;2023-03-23T11:17:55;4.77;;;2.00;;
58250;SDS011;51449;51.676;5.812;2023-03-23T11:20:24;3.50;;;1.50;;
58250;SDS011;51449;51.676;5.812;2023-03-23T11:22:47;4.80;;;1.83;;
58250;SDS011;51449;51.676;5.812;2023-03-23T11:25:09;3.13;;;1.70;;
58250;SDS011;51449;51.676;5.812;2023-03-23T11:27:33;5.63;;;1.70;;
58250;SDS011;51449;51.676;5.812;2023-03-23T11:29:55;3.47;;;1.77;;
58250;SDS011;51449;51.676;5.812;2023-03-23T11:35:06;6.53;;;1.70;;
58250;SDS011;51449;51.676;5.812;2023-03-23T11:37:41;3.30;;;1.70;;
58250;SDS011;51449;51.676;5.812;2023-03-23T11:51:20;7.90;;;2.08;;
58250;SDS011;51449;51.676;5.812;2023-03-23T11:56:42;3.93;;;1.70;;
58250;SDS011;51449;51.676;5.812;2023-03-23T11:59:12;5.40;;;1.50;;
58250;SDS011;51449;51.676;5.812;2023-03-23T12:04:25;6.03;;;2.47;;
58250;SDS011;51449;51.676;5.812;2023-03-23T12:18:37;4.33;;;1.30;;
58250;SDS011;51449;51.676;5.812;2023-03-23T12:27:25;3.07;;;1.53;;
58250;SDS011;51449;51.676;5.812;2023-03-23T12:33:54;2.90;;;1.20;;
58250;SDS011;51449;51.676;5.812;2023-03-23T12:41:49;4.70;;;1.40;;
58250;SDS011;51449;51.676;5.812;2023-03-23T12:44:41;2.73;;;1.50;;
58250;SDS011;51449;51.676;5.812;2023-03-23T12:47:21;5.70;;;1.60;;
58250;SDS011;51449;51.676;5.812;2023-03-23T12:58:29;6.77;;;1.93;;
58250;SDS011;51449;51.676;5.812;2023-03-23T13:01:04;3.50;;;1.63;;
58250;SDS011;51449;51.676;5.812;2023-03-23T13:03:42;5.37;;;1.80;;
58250;SDS011;51449;51.676;5.812;2023-03-23T13:06:18;6.23;;;2.07;;
58250;SDS011;51449;51.676;5.812;2023-03-23T13:08:54;6.67;;;1.83;;
58250;SDS011;51449;51.676;5.812;2023-03-23T13:11:41;3.50;;;2.00;;
58250;SDS011;51449;51.676;5.812;2023-03-23T13:14:09;5.67;;;2.03;;
58250;SDS011;51449;51.676;5.812;2023-03-23T13:17:11;5.70;;;1.77;;
58250;SDS011;51449;51.676;5.812;2023-03-23T13:22:50;5.10;;;1.90;;
58250;SDS011;51449;51.676;5.812;2023-03-23T13:25:47;5.87;;;1.60;;
58250;SDS011;51449;51.676;5.812;2023-03-23T13:28:28;8.73;;;1.92;;
58250;SDS011;51449;51.676;5.812;2023-03-23T13:30:57;5.53;;;1.63;;
58250;SDS011;51449;51.676;5.812;2023-03-23T13:33:32;5.90;;;1.90;;
58250;SDS011;51449;51.676;5.812;2023-03-23T13:36:17;6.13;;;2.10;;
58250;SDS011;51449;51.676;5.812;2023-03-23T13:38:48;5.37;;;1.50;;
58250;SDS011;51449;51.676;5.812;2023-03-23T13:41:11;5.87;;;1.83;;
58250;SDS011;51449;51.676;5.812;2023-03-23T13:43:35;7.85;;;2.15;;
58250;SDS011;51449;51.676;5.812;2023-03-23T13:46:08;7.13;;;2.37;;
58250;SDS011;51449;51.676;5.812;2023-03-23T13:48:49;6.30;;;1.67;;
58250;SDS011;51449;51.676;5.812;2023-03-23T13:51:26;5.97;;;2.37;;
58250;SDS011;51449;51.676;5.812;2023-03-23T13:55:12;5.73;;;2.30;;
58250;SDS011;51449;51.676;5.812;2023-03-23T13:56:59;5.73;;;2.17;;
58250;SDS011;51449;51.676;5.812;2023-03-23T14:01:46;6.72;;;2.00;;
58250;SDS011;51449;51.676;5.812;2023-03-23T14:04:14;6.27;;;2.20;;
58250;SDS011;51449;51.676;5.812;2023-03-23T14:06:38;5.93;;;2.13;;
58250;SDS011;51449;51.676;5.812;2023-03-23T14:09:15;9.23;;;2.87;;
58250;SDS011;51449;51.676;5.812;2023-03-23T14:11:50;6.70;;;2.17;;
58250;SDS011;51449;51.676;5.812;2023-03-23T14:14:30;6.93;;;2.47;;
58250;SDS011;51449;51.676;5.812;2023-03-23T14:17:05;4.77;;;2.00;;
58250;SDS011;51449;51.676;5.812;2023-03-23T14:19:28;5.77;;;1.40;;
58250;SDS011;51449;51.676;5.812;2023-03-23T14:22:00;4.40;;;2.10;;
58250;SDS011;51449;51.676;5.812;2023-03-23T14:24:23;5.90;;;1.87;;
58250;SDS011;51449;51.676;5.812;2023-03-23T14:26:48;3.57;;;2.00;;
58250;SDS011;51449;51.676;5.812;2023-03-23T14:29:12;5.65;;;1.75;;
58250;SDS011;51449;51.676;5.812;2023-03-23T14:31:34;4.63;;;1.97;;
58250;SDS011;51449;51.676;5.812;2023-03-23T14:33:56;5.00;;;2.07;;
58250;SDS011;51449;51.676;5.812;2023-03-23T14:36:27;4.93;;;1.97;;
58250;SDS011;51449;51.676;5.812;2023-03-23T14:39:04;4.50;;;1.40;;
58250;SDS011;51449;51.676;5.812;2023-03-23T14:41:42;4.03;;;1.63;;
58250;SDS011;51449;51.676;5.812;2023-03-23T14:44:06;4.63;;;1.40;;
58250;SDS011;51449;51.676;5.812;2023-03-23T14:46:33;3.97;;;1.70;;
58250;SDS011;51449;51.676;5.812;2023-03-23T14:48:55;3.70;;;1.40;;
58250;SDS011;51449;51.676;5.812;2023-03-23T14:51:21;3.57;;;1.30;;
58250;SDS011;51449;51.676;5.812;2023-03-23T14:53:42;3.47;;;1.90;;
58250;SDS011;51449;51.676;5.812;2023-03-23T14:56:06;4.43;;;1.87;;
58250;SDS011;51449;51.676;5.812;2023-03-23T14:58:36;5.40;;;1.90;;
58250;SDS011;51449;51.676;5.812;2023-03-23T15:01:05;3.73;;;1.60;;
58250;SDS011;51449;51.676;5.812;2023-03-23T15:03:34;3.47;;;1.75;;
58250;SDS011;51449;51.676;5.812;2023-03-23T15:06:15;5.27;;;1.90;;
58250;SDS011;51449;51.676;5.812;2023-03-23T15:08:39;3.97;;;1.97;;
58250;SDS011;51449;51.676;5.812;2023-03-23T15:11:08;4.63;;;1.90;;
58250;SDS011;51449;51.676;5.812;2023-03-23T15:13:37;4.40;;;2.50;;
58250;SDS011;51449;51.676;5.812;2023-03-23T15:16:11;5.13;;;2.60;;
58250;SDS011;51449;51.676;5.812;2023-03-23T15:18:40;4.77;;;2.33;;
58250;SDS011;51449;51.676;5.812;2023-03-23T15:22:14;6.55;;;2.75;;
58250;SDS011;51449;51.676;5.812;2023-03-23T15:24:32;7.10;;;2.50;;
58250;SDS011;51449;51.676;5.812;2023-03-23T15:27:12;4.45;;;2.40;;
58250;SDS011;51449;51.676;5.812;2023-03-23T15:29:45;9.03;;;2.50;;
58250;SDS011;51449;51.676;5.812;2023-03-23T15:32:19;4.93;;;2.13;;
58250;SDS011;51449;51.676;5.812;2023-03-23T15:34:44;8.13;;;2.30;;
58250;SDS011;51449;51.676;5.812;2023-03-23T15:37:15;7.10;;;2.47;;
58250;SDS011;51449;51.676;5.812;2023-03-23T15:39:42;5.93;;;2.20;;
58250;SDS011;51449;51.676;5.812;2023-03-23T15:42:05;4.37;;;2.20;;
58250;SDS011;51449;51.676;5.812;2023-03-23T15:44:27;6.27;;;2.10;;
58250;SDS011;51449;51.676;5.812;2023-03-23T15:46:53;6.80;;;2.37;;
58250;SDS011;51449;51.676;5.812;2023-03-23T15:49:24;5.43;;;2.70;;
58250;SDS011;51449;51.676;5.812;2023-03-23T15:51:45;5.87;;;2.13;;
58250;SDS011;51449;51.676;5.812;2023-03-23T15:54:07;7.47;;;2.50;;
58250;SDS011;51449;51.676;5.812;2023-03-23T15:56:33;8.63;;;2.57;;
58250;SDS011;51449;51.676;5.812;2023-03-23T15:58:54;5.60;;;2.23;;
58250;SDS011;51449;51.676;5.812;2023-03-23T16:01:20;7.57;;;2.47;;
58250;SDS011;51449;51.676;5.812;2023-03-23T16:03:55;5.23;;;1.83;;
58250;SDS011;51449;51.676;5.812;2023-03-23T16:06:23;5.60;;;2.30;;
58250;SDS011;51449;51.676;5.812;2023-03-23T16:08:48;6.20;;;2.33;;
58250;SDS011;51449;51.676;5.812;2023-03-23T16:11:16;4.60;;;2.10;;
58250;SDS011;51449;51.676;5.812;2023-03-23T16:13:39;6.05;;;2.42;;
58250;SDS011;51449;51.676;5.812;2023-03-23T16:16:02;6.97;;;2.40;;
58250;SDS011;51449;51.676;5.812;2023-03-23T16:18:25;8.30;;;2.90;;
58250;SDS011;51449;51.676;5.812;2023-03-23T16:20:47;5.93;;;2.00;;
58250;SDS011;51449;51.676;5.812;2023-03-23T16:23:10;9.20;;;3.07;;
58250;SDS011;51449;51.676;5.812;2023-03-23T16:25:32;8.27;;;2.70;;
58250;SDS011;51449;51.676;5.812;2023-03-23T16:27:53;6.07;;;2.00;;
58250;SDS011;51449;51.676;5.812;2023-03-23T16:32:46;5.40;;;2.70;;
58250;SDS011;51449;51.676;5.812;2023-03-23T16:35:08;8.83;;;2.80;;
58250;SDS011;51449;51.676;5.812;2023-03-23T16:37:30;5.43;;;2.50;;
58250;SDS011;51449;51.676;5.812;2023-03-23T16:39:53;6.43;;;2.10;;
58250;SDS011;51449;51.676;5.812;2023-03-23T16:42:15;6.90;;;2.30;;
58250;SDS011;51449;51.676;5.812;2023-03-23T16:44:37;6.77;;;2.30;;
58250;SDS011;51449;51.676;5.812;2023-03-23T16:46:58;11.30;;;3.33;;
58250;SDS011;51449;51.676;5.812;2023-03-23T16:49:20;9.40;;;3.37;;
58250;SDS011;51449;51.676;5.812;2023-03-23T16:51:42;11.43;;;4.50;;
58250;SDS011;51449;51.676;5.812;2023-03-23T16:54:04;12.13;;;5.77;;
58250;SDS011;51449;51.676;5.812;2023-03-23T16:56:26;9.27;;;4.80;;
58250;SDS011;51449;51.676;5.812;2023-03-23T16:58:48;7.37;;;3.20;;
58250;SDS011;51449;51.676;5.812;2023-03-23T17:01:09;5.73;;;2.50;;
58250;SDS011;51449;51.676;5.812;2023-03-23T17:03:32;5.70;;;2.20;;
58250;SDS011;51449;51.676;5.812;2023-03-23T17:05:54;6.70;;;2.77;;